createdAt,value
2022-10-06T00:02:28.106Z,15.47
2022-10-06T00:04:59.453Z,15.47
2022-10-06T00:07:30.770Z,15.48
2022-10-06T00:10:02.129Z,15.49
2022-10-06T00:12:45.304Z,15.48
2022-10-06T00:15:21.757Z,15.44
2022-10-06T00:17:53.190Z,15.47
2022-10-06T00:20:26.740Z,15.49
2022-10-06T00:22:58.293Z,15.49
2022-10-06T00:25:29.633Z,15.44
2022-10-06T00:28:01.103Z,15.49
2022-10-06T00:30:32.444Z,15.50
2022-10-06T00:33:04.493Z,15.50
2022-10-06T00:35:35.915Z,15.51
2022-10-06T00:38:07.259Z,15.45
2022-10-06T00:40:49.977Z,15.38
2022-10-06T00:43:42.348Z,15.51
2022-10-06T00:46:36.512Z,15.50
2022-10-06T00:49:28.330Z,15.47
2022-10-06T00:52:06.922Z,15.42
2022-10-06T00:54:38.885Z,15.44
2022-10-06T00:57:10.978Z,15.40
2022-10-06T00:59:42.468Z,15.27
2022-10-06T01:02:22.107Z,15.39
2022-10-06T01:04:57.766Z,15.39
2022-10-06T01:07:30.049Z,15.37
2022-10-06T01:10:01.468Z,15.29
2022-10-06T01:12:33.753Z,15.25
2022-10-06T01:15:05.766Z,15.13
2022-10-06T01:17:43.997Z,15.11
2022-10-06T01:20:18.225Z,14.93
2022-10-06T01:22:55.449Z,14.88
2022-10-06T01:25:26.890Z,14.80
2022-10-06T01:27:59.183Z,14.71
2022-10-06T01:30:41.505Z,14.54
2022-10-06T01:33:12.816Z,14.57
2022-10-06T01:35:49.014Z,14.49
2022-10-06T01:38:21.790Z,14.42
2022-10-06T01:40:53.495Z,14.37
2022-10-06T01:43:24.946Z,14.32
2022-10-06T01:45:57.031Z,14.20
2022-10-06T01:48:28.902Z,14.23
2022-10-06T01:51:00.406Z,14.14
2022-10-06T01:53:32.013Z,14.14
2022-10-06T01:56:03.338Z,14.07
2022-10-06T01:58:34.693Z,14.04
2022-10-06T02:01:07.156Z,13.99
2022-10-06T02:03:39.918Z,13.96
2022-10-06T02:06:11.635Z,13.89
2022-10-06T02:08:43.023Z,13.88
2022-10-06T02:15:07.287Z,14.04
2022-10-06T02:17:38.620Z,14.04
2022-10-06T02:20:09.873Z,13.98
2022-10-06T02:22:43.577Z,13.88
2022-10-06T02:25:15.194Z,13.79
2022-10-06T02:27:46.478Z,13.83
2022-10-06T02:30:17.741Z,13.79
2022-10-06T02:32:49.020Z,13.83
2022-10-06T02:35:20.305Z,13.83
2022-10-06T02:37:51.734Z,13.87
2022-10-06T02:40:23.034Z,13.95
2022-10-06T02:42:54.278Z,13.99
2022-10-06T02:45:25.542Z,13.97
2022-10-06T02:47:56.933Z,14.04
2022-10-06T02:50:28.191Z,14.15
2022-10-06T02:52:59.533Z,14.13
2022-10-06T02:55:31.168Z,14.16
2022-10-06T02:58:03.537Z,14.25
2022-10-06T03:00:34.786Z,14.21
2022-10-06T03:03:06.166Z,14.15
2022-10-06T03:05:37.445Z,14.05
2022-10-06T03:08:10.790Z,13.93
2022-10-06T03:10:42.034Z,13.92
2022-10-06T03:13:13.290Z,13.85
2022-10-06T03:15:44.565Z,13.75
2022-10-06T03:18:15.873Z,13.71
2022-10-06T03:20:47.134Z,13.67
2022-10-06T03:23:18.571Z,13.54
2022-10-06T03:25:57.500Z,13.52
2022-10-06T03:28:29.274Z,13.54
2022-10-06T03:31:06.565Z,13.40
2022-10-06T03:33:37.957Z,13.47
2022-10-06T03:36:17.010Z,13.45
2022-10-06T03:38:48.409Z,13.39
2022-10-06T03:41:25.320Z,13.40
2022-10-06T03:43:59.025Z,13.37
2022-10-06T03:46:32.713Z,13.35
2022-10-06T03:49:04.231Z,13.33
2022-10-06T03:51:38.352Z,13.35
2022-10-06T03:54:10.815Z,13.33
2022-10-06T03:56:42.552Z,13.23
2022-10-06T03:59:16.403Z,13.27
2022-10-06T04:01:48.483Z,13.23
2022-10-06T04:04:19.898Z,13.24
2022-10-06T04:06:51.327Z,13.20
2022-10-06T04:09:22.768Z,13.18
2022-10-06T04:11:54.071Z,13.06
2022-10-06T04:14:25.346Z,13.10
2022-10-06T04:16:57.623Z,13.18
2022-10-06T04:19:28.864Z,13.17
2022-10-06T04:22:00.191Z,13.16
2022-10-06T04:24:31.520Z,13.16
2022-10-06T04:27:21.394Z,13.14
2022-10-06T04:29:52.735Z,13.12
2022-10-06T04:32:24.360Z,13.11
2022-10-06T04:34:55.711Z,13.08
2022-10-06T04:37:28.346Z,13.05
2022-10-06T04:39:59.661Z,12.99
2022-10-06T04:42:34.877Z,12.96
2022-10-06T04:45:07.565Z,12.98
2022-10-06T04:47:38.818Z,12.95
2022-10-06T04:50:10.143Z,12.89
2022-10-06T04:52:41.429Z,12.89
2022-10-06T04:55:12.742Z,12.86
2022-10-06T04:57:43.992Z,12.82
2022-10-06T05:00:25.114Z,12.77
2022-10-06T05:02:56.446Z,12.73
2022-10-06T05:05:27.718Z,12.69
2022-10-06T05:07:58.981Z,12.67
2022-10-06T05:10:30.224Z,12.64
2022-10-06T05:13:03.701Z,12.61
2022-10-06T05:15:35.062Z,12.53
2022-10-06T05:18:06.534Z,12.58
2022-10-06T05:20:37.783Z,12.42
2022-10-06T05:23:09.251Z,12.54
2022-10-06T05:25:50.495Z,12.48
2022-10-06T05:28:23.564Z,12.52
2022-10-06T05:30:56.745Z,12.40
2022-10-06T05:33:30.693Z,12.49
2022-10-06T05:36:09.306Z,12.46
2022-10-06T05:38:41.045Z,12.41
2022-10-06T05:41:21.065Z,12.42
2022-10-06T05:43:53.201Z,12.40
2022-10-06T05:46:28.297Z,12.35
2022-10-06T05:49:06.010Z,12.35
2022-10-06T05:51:39.938Z,12.36
2022-10-06T05:54:11.228Z,12.36
2022-10-06T05:56:42.498Z,12.39
2022-10-06T05:59:13.741Z,12.37
2022-10-06T06:01:45.154Z,12.43
2022-10-06T06:04:16.459Z,12.30
2022-10-06T06:06:48.759Z,12.41
2022-10-06T06:09:21.401Z,12.42
2022-10-06T06:11:52.955Z,12.43
2022-10-06T06:14:48.862Z,12.49
2022-10-06T06:17:20.121Z,12.50
2022-10-06T06:19:51.373Z,12.60
2022-10-06T06:22:22.854Z,12.67
2022-10-06T06:24:54.160Z,12.73
2022-10-06T06:27:26.305Z,12.72
2022-10-06T06:29:58.182Z,12.86
2022-10-06T06:32:29.450Z,12.78
2022-10-06T06:35:00.730Z,12.93
2022-10-06T06:37:32.091Z,13.05
2022-10-06T06:40:03.866Z,13.12
2022-10-06T06:42:35.164Z,13.20
2022-10-06T06:45:07.151Z,13.26
2022-10-06T06:47:38.967Z,13.34
2022-10-06T06:50:10.691Z,13.40
2022-10-06T06:52:43.847Z,13.47
2022-10-06T06:55:15.153Z,13.53
2022-10-06T06:57:46.448Z,13.60
2022-10-06T07:00:17.913Z,13.70
2022-10-06T07:02:56.011Z,13.68
2022-10-06T07:05:27.395Z,13.86
2022-10-06T07:07:59.481Z,13.87
2022-10-06T07:10:31.495Z,13.99
2022-10-06T07:13:04.496Z,14.12
2022-10-06T07:15:54.265Z,14.19
2022-10-06T07:18:44.409Z,14.26
2022-10-06T07:21:34.369Z,14.32
2022-10-06T07:24:24.487Z,14.35
2022-10-06T07:26:55.773Z,14.45
2022-10-06T07:29:27.774Z,14.52
2022-10-06T07:31:59.029Z,14.64
2022-10-06T07:34:30.432Z,14.75
2022-10-06T07:37:04.171Z,14.77
2022-10-06T07:39:37.814Z,14.74
2022-10-06T07:42:13.122Z,14.88
2022-10-06T07:45:05.755Z,15.07
2022-10-06T07:47:39.972Z,15.13
2022-10-06T07:50:12.928Z,15.11
2022-10-06T07:52:47.305Z,15.24
2022-10-06T07:55:18.968Z,15.25
2022-10-06T07:57:51.165Z,15.35
2022-10-06T08:00:22.695Z,15.33
2022-10-06T08:02:57.025Z,15.41
2022-10-06T08:05:28.364Z,15.40
2022-10-06T08:07:59.620Z,15.52
2022-10-06T08:10:31.572Z,15.63
2022-10-06T08:13:07.315Z,15.70
2022-10-06T08:15:38.848Z,15.80
2022-10-06T08:18:27.209Z,15.92
2022-10-06T08:21:08.702Z,15.97
2022-10-06T08:23:42.346Z,16.04
2022-10-06T08:26:14.717Z,16.06
2022-10-06T08:28:50.961Z,16.08
2022-10-06T08:31:23.560Z,16.12
2022-10-06T08:33:56.740Z,16.15
2022-10-06T08:36:32.065Z,16.23
2022-10-06T08:39:03.973Z,16.30
2022-10-06T08:41:40.256Z,16.39
2022-10-06T08:44:19.098Z,16.44
2022-10-06T08:46:57.185Z,16.47
2022-10-06T08:49:40.517Z,16.47
2022-10-06T08:52:41.196Z,16.52
2022-10-06T08:55:18.563Z,16.58
2022-10-06T08:58:18.057Z,16.61
2022-10-06T09:00:49.549Z,16.57
2022-10-06T09:03:25.259Z,16.66
2022-10-06T09:06:18.237Z,16.79
2022-10-06T09:08:54.559Z,16.81
2022-10-06T09:11:37.795Z,17.00
2022-10-06T09:14:24.438Z,17.05
2022-10-06T09:17:02.668Z,16.94
2022-10-06T09:19:41.283Z,16.97
2022-10-06T09:22:21.121Z,17.00
2022-10-06T09:24:57.189Z,17.11
2022-10-06T09:27:33.568Z,17.18
2022-10-06T09:30:06.145Z,17.26
2022-10-06T09:32:40.284Z,17.36
2022-10-06T09:35:18.812Z,17.51
2022-10-06T09:37:58.404Z,17.66
2022-10-06T09:40:49.224Z,17.80
2022-10-06T09:43:29.476Z,17.78
2022-10-06T09:46:41.598Z,17.60
2022-10-06T09:49:12.837Z,17.59
2022-10-06T09:52:02.680Z,17.71
2022-10-06T09:54:34.934Z,17.87
2022-10-06T09:57:20.182Z,18.04
2022-10-06T09:59:52.030Z,18.15
2022-10-06T10:02:40.846Z,18.19
2022-10-06T10:05:20.957Z,18.22
2022-10-06T10:08:13.815Z,18.29
2022-10-06T10:10:45.070Z,18.30
2022-10-06T10:13:26.603Z,18.49
2022-10-06T10:16:02.831Z,18.48
2022-10-06T10:18:35.360Z,18.38
2022-10-06T10:21:08.531Z,18.46
2022-10-06T10:23:55.276Z,18.65
2022-10-06T10:26:54.881Z,18.83
2022-10-06T10:29:54.561Z,18.99
2022-10-06T10:33:00.774Z,19.02
2022-10-06T10:35:37.191Z,18.89
2022-10-06T10:38:26.819Z,18.65
2022-10-06T10:41:13.110Z,18.65
2022-10-06T10:44:10.366Z,18.70
2022-10-06T10:46:49.615Z,18.78
2022-10-06T10:49:31.941Z,18.81
2022-10-06T10:52:14.009Z,18.93
2022-10-06T10:55:06.788Z,19.12
2022-10-06T10:57:41.202Z,19.21
2022-10-06T11:00:20.739Z,19.24
2022-10-06T11:02:54.880Z,19.21
2022-10-06T11:05:45.180Z,19.16
2022-10-06T11:08:38.288Z,18.97
2022-10-06T11:11:19.870Z,18.81
2022-10-06T11:13:54.480Z,18.56
2022-10-06T11:16:51.254Z,18.42
2022-10-06T11:20:16.201Z,18.67
2022-10-06T11:22:58.406Z,18.88
2022-10-06T11:25:46.339Z,19.15
2022-10-06T11:28:22.871Z,19.39
2022-10-06T11:31:03.673Z,19.46
2022-10-06T11:33:58.243Z,19.25
2022-10-06T11:37:06.366Z,19.25
2022-10-06T11:40:15.759Z,19.33
2022-10-06T11:43:02.603Z,19.36
2022-10-06T11:45:45.860Z,19.33
2022-10-06T11:48:26.722Z,19.42
2022-10-06T11:51:21.422Z,19.34
2022-10-06T11:53:53.053Z,19.37
2022-10-06T11:56:36.639Z,19.33
2022-10-06T11:59:25.541Z,19.43
2022-10-06T12:01:58.107Z,19.34
2022-10-06T12:04:30.112Z,19.29
2022-10-06T12:07:02.988Z,19.34
2022-10-06T12:09:46.155Z,19.39
2022-10-06T12:12:18.838Z,19.40
2022-10-06T12:16:58.196Z,19.31
2022-10-06T12:17:55.397Z,19.36
2022-10-06T12:20:45.204Z,19.46
2022-10-06T12:23:36.690Z,19.43
2022-10-06T12:26:23.609Z,19.53
2022-10-06T12:29:03.367Z,19.46
2022-10-06T12:31:50.586Z,19.54
2022-10-06T12:34:54.373Z,19.53
2022-10-06T12:37:28.758Z,19.63
2022-10-06T12:40:38.021Z,19.54
2022-10-06T12:43:19.084Z,19.41
2022-10-06T12:46:15.467Z,19.49
2022-10-06T12:49:02.933Z,19.43
2022-10-06T12:51:38.731Z,19.43
2022-10-06T12:54:35.444Z,19.53
2022-10-06T12:57:20.221Z,19.66
2022-10-06T12:59:51.648Z,19.73
2022-10-06T13:02:27.014Z,19.75
2022-10-06T13:05:09.389Z,19.62
2022-10-06T13:08:04.912Z,19.43
2022-10-06T13:10:36.357Z,19.31
2022-10-06T13:13:20.667Z,19.28
2022-10-06T13:15:55.838Z,19.26
2022-10-06T13:18:27.589Z,19.40
2022-10-06T13:21:00.654Z,19.48
2022-10-06T13:23:37.565Z,19.50
2022-10-06T13:26:35.347Z,19.56
2022-10-06T13:29:25.311Z,19.57
2022-10-06T13:31:56.713Z,19.56
2022-10-06T13:34:34.745Z,19.58
2022-10-06T13:37:06.190Z,19.62
2022-10-06T13:39:38.378Z,19.61
2022-10-06T13:42:16.178Z,19.55
2022-10-06T13:44:58.946Z,19.54
2022-10-06T13:47:30.559Z,19.41
2022-10-06T13:50:19.447Z,19.34
2022-10-06T13:52:51.241Z,19.38
2022-10-06T13:55:27.458Z,19.38
2022-10-06T13:58:01.978Z,19.36
2022-10-06T14:00:49.615Z,19.32
2022-10-06T14:03:24.164Z,19.36
2022-10-06T14:06:18.844Z,19.33
2022-10-06T14:08:56.482Z,19.29
2022-10-06T14:11:29.662Z,19.18
2022-10-06T14:14:03.071Z,19.16
2022-10-06T14:16:34.364Z,19.18
2022-10-06T14:19:05.807Z,19.15
2022-10-06T14:21:45.566Z,19.15
2022-10-06T14:24:16.926Z,19.23
2022-10-06T14:26:54.705Z,19.21
2022-10-06T14:29:26.419Z,19.23
2022-10-06T14:32:08.528Z,19.23
2022-10-06T14:34:41.918Z,19.23
2022-10-06T14:37:15.871Z,19.18
2022-10-06T14:39:50.445Z,19.15
2022-10-06T14:42:26.546Z,19.18
2022-10-06T14:44:58.060Z,19.19
2022-10-06T14:47:30.287Z,19.17
2022-10-06T14:50:01.539Z,19.11
2022-10-06T14:52:32.830Z,19.08
2022-10-06T14:55:05.505Z,19.03
2022-10-06T14:57:36.800Z,18.97
2022-10-06T15:00:08.988Z,18.93
2022-10-06T15:02:40.472Z,18.89
2022-10-06T15:05:11.803Z,18.92
2022-10-06T15:08:01.900Z,18.89
2022-10-06T15:10:33.214Z,18.80
2022-10-06T15:13:09.179Z,18.70
2022-10-06T15:15:40.438Z,18.62
2022-10-06T15:18:11.789Z,18.50
2022-10-06T15:20:47.197Z,18.33
2022-10-06T15:23:18.455Z,18.34
2022-10-06T15:26:11.644Z,18.24
2022-10-06T15:29:00.950Z,18.14
2022-10-06T15:31:46.560Z,18.02
2022-10-06T15:34:19.930Z,17.91
2022-10-06T15:36:52.857Z,17.82
2022-10-06T15:39:26.949Z,17.73
2022-10-06T15:41:59.323Z,17.64
2022-10-06T15:44:34.662Z,17.53
2022-10-06T15:47:06.354Z,17.43
2022-10-06T15:49:40.597Z,17.33
2022-10-06T15:52:12.966Z,17.25
2022-10-06T15:54:46.381Z,17.16
2022-10-06T15:57:20.980Z,16.97
2022-10-06T15:59:52.755Z,16.99
2022-10-06T16:02:24.165Z,16.92
2022-10-06T16:05:16.077Z,16.83
2022-10-06T16:07:47.333Z,16.73
2022-10-06T16:10:18.566Z,16.66
2022-10-06T16:12:49.830Z,16.58
2022-10-06T16:15:21.099Z,16.50
2022-10-06T16:17:52.445Z,16.40
2022-10-06T16:20:23.715Z,16.31
2022-10-06T16:22:55.127Z,16.19
2022-10-06T16:25:26.391Z,16.12
2022-10-06T16:27:57.720Z,16.02
2022-10-06T16:30:29.669Z,15.90
2022-10-06T16:33:01.029Z,15.78
2022-10-06T16:35:32.330Z,15.67
2022-10-06T16:38:03.588Z,15.56
2022-10-06T16:40:34.941Z,15.46
2022-10-06T16:43:06.287Z,15.34
2022-10-06T16:45:37.533Z,15.23
2022-10-06T16:48:09.773Z,15.11
2022-10-06T16:50:41.021Z,14.98
2022-10-06T16:53:16.157Z,14.87
2022-10-06T16:55:48.686Z,14.76
2022-10-06T16:58:19.925Z,14.66
2022-10-06T17:00:58.365Z,14.44
2022-10-06T17:03:29.687Z,14.43
2022-10-06T17:06:02.593Z,14.33
2022-10-06T17:08:35.025Z,14.22
2022-10-06T17:11:21.006Z,14.12
2022-10-06T17:13:55.219Z,14.02
2022-10-06T17:16:29.960Z,13.93
2022-10-06T17:19:01.879Z,13.84
2022-10-06T17:21:54.068Z,13.74
2022-10-06T17:24:27.710Z,13.66
2022-10-06T17:26:59.123Z,13.59
2022-10-06T17:29:30.439Z,13.50
2022-10-06T17:32:02.609Z,13.37
2022-10-06T17:34:34.362Z,13.26
2022-10-06T17:37:05.758Z,13.23
2022-10-06T17:39:37.015Z,13.14
2022-10-06T17:42:08.351Z,13.05
2022-10-06T17:44:39.968Z,12.96
2022-10-06T17:47:12.216Z,12.90
2022-10-06T17:49:44.243Z,12.74
2022-10-06T17:52:15.628Z,12.76
2022-10-06T17:54:46.885Z,12.68
2022-10-06T17:57:19.400Z,12.61
2022-10-06T17:59:50.641Z,12.53
2022-10-06T18:02:21.949Z,12.44
2022-10-06T18:04:53.306Z,12.40
2022-10-06T18:07:24.714Z,12.33
2022-10-06T18:10:14.523Z,12.27
2022-10-06T18:12:46.469Z,12.21
2022-10-06T18:15:17.757Z,12.15
2022-10-06T18:17:50.470Z,12.09
2022-10-06T18:20:21.829Z,12.03
2022-10-06T18:22:53.386Z,11.95
2022-10-06T18:25:26.915Z,11.88
2022-10-06T18:27:58.447Z,11.82
2022-10-06T18:30:30.908Z,11.74
2022-10-06T18:36:14.656Z,11.58
2022-10-06T18:38:47.224Z,11.51
2022-10-06T18:41:19.575Z,11.44
2022-10-06T18:43:51.241Z,11.40
2022-10-06T18:46:41.515Z,11.36
2022-10-06T18:49:15.834Z,11.28
2022-10-06T18:51:49.326Z,11.22
2022-10-06T18:54:26.728Z,11.17
2022-10-06T18:56:58.124Z,11.12
2022-10-06T18:59:32.125Z,11.08
2022-10-06T19:02:04.493Z,10.99
2022-10-06T19:04:35.874Z,10.95
2022-10-06T19:07:07.190Z,10.96
2022-10-06T19:09:41.506Z,10.92
2022-10-06T19:12:16.606Z,10.82
2022-10-06T19:14:47.986Z,10.85
2022-10-06T19:17:22.657Z,10.81
2022-10-06T19:19:55.246Z,10.80
2022-10-06T19:22:26.647Z,10.75
2022-10-06T19:24:58.033Z,10.75
2022-10-06T19:27:29.841Z,10.71
2022-10-06T19:30:01.107Z,10.62
2022-10-06T19:32:32.767Z,10.65
2022-10-06T19:35:09.247Z,10.62
2022-10-06T19:37:42.055Z,10.48
2022-10-06T19:40:13.592Z,10.57
2022-10-06T19:42:47.841Z,10.54
2022-10-06T19:45:20.640Z,10.43
2022-10-06T19:47:52.061Z,10.46
2022-10-06T19:50:23.336Z,10.47
2022-10-06T19:52:55.425Z,10.47
2022-10-06T19:55:29.361Z,10.49
2022-10-06T19:58:00.896Z,10.46
2022-10-06T20:00:32.198Z,10.43
2022-10-06T20:03:07.333Z,10.43
2022-10-06T20:05:38.967Z,10.31
2022-10-06T20:08:10.309Z,10.40
2022-10-06T20:10:41.614Z,10.41
2022-10-06T20:13:12.890Z,10.42
2022-10-06T20:15:44.153Z,10.41
2022-10-06T20:18:15.821Z,10.40
2022-10-06T20:20:56.421Z,10.39
2022-10-06T20:23:27.690Z,10.26
2022-10-06T20:26:31.842Z,10.37
2022-10-06T20:29:06.501Z,10.34
2022-10-06T20:31:40.645Z,10.33
2022-10-06T20:34:15.140Z,10.32
2022-10-06T20:36:47.954Z,10.21
2022-10-06T20:39:40.459Z,10.28
2022-10-06T20:42:15.132Z,10.26
2022-10-06T20:44:47.070Z,10.22
2022-10-06T20:47:18.392Z,10.20
2022-10-06T20:49:54.989Z,10.17
2022-10-06T20:52:26.322Z,10.12
2022-10-06T20:54:57.640Z,10.09
2022-10-06T20:57:33.771Z,10.06
2022-10-06T21:00:07.192Z,10.03
2022-10-06T21:02:39.000Z,9.94
2022-10-06T21:05:10.487Z,9.88
2022-10-06T21:07:42.657Z,9.78
2022-10-06T21:10:14.344Z,9.89
2022-10-06T21:12:46.200Z,9.85
2022-10-06T21:15:17.720Z,9.81
2022-10-06T21:17:49.303Z,9.74
2022-10-06T21:20:20.648Z,9.74
2022-10-06T21:22:52.758Z,9.71
2022-10-06T21:25:24.169Z,9.66
2022-10-06T21:27:55.578Z,9.50
2022-10-06T21:30:27.166Z,9.57
2022-10-06T21:32:58.678Z,9.54
2022-10-06T21:35:30.069Z,9.52
2022-10-06T21:38:01.455Z,9.50
2022-10-06T21:40:37.232Z,9.46
2022-10-06T21:43:08.612Z,9.44
2022-10-06T21:45:40.013Z,9.40
2022-10-06T21:48:11.464Z,9.36
2022-10-06T21:50:42.957Z,9.31
2022-10-06T21:53:14.341Z,9.30
2022-10-06T21:55:45.756Z,9.28
2022-10-06T21:58:17.164Z,9.25
2022-10-06T22:00:48.578Z,9.12
2022-10-06T22:03:19.954Z,9.20
2022-10-06T22:05:51.316Z,9.16
2022-10-06T22:08:22.756Z,9.13
2022-10-06T22:10:54.117Z,9.08
2022-10-06T22:13:25.496Z,9.04
2022-10-06T22:15:57.112Z,8.92
2022-10-06T22:18:28.665Z,8.99
2022-10-06T22:21:00.877Z,8.99
2022-10-06T22:23:32.247Z,8.94
2022-10-06T22:26:03.738Z,8.85
2022-10-06T22:28:35.727Z,8.82
2022-10-06T22:31:09.871Z,8.82
2022-10-06T22:33:42.914Z,8.78
2022-10-06T22:36:14.298Z,8.74
2022-10-06T22:38:45.901Z,8.66
2022-10-06T22:41:17.751Z,8.55
2022-10-06T22:43:52.767Z,8.59
2022-10-06T22:46:25.935Z,8.51
2022-10-06T22:48:58.121Z,8.61
2022-10-06T22:51:29.560Z,8.55
2022-10-06T22:54:01.566Z,8.54
2022-10-06T22:56:34.060Z,8.46
2022-10-06T22:59:05.419Z,8.45
2022-10-06T23:01:36.802Z,8.37
2022-10-06T23:04:08.183Z,8.36
2022-10-06T23:06:39.568Z,8.31
2022-10-06T23:09:11.972Z,8.27
2022-10-06T23:11:43.336Z,8.26
2022-10-06T23:14:14.801Z,8.25
2022-10-06T23:16:46.206Z,8.25
2022-10-06T23:19:17.609Z,8.23
2022-10-06T23:21:49.023Z,8.21
2022-10-06T23:24:20.440Z,8.19
2022-10-06T23:26:51.870Z,8.17
2022-10-06T23:29:23.367Z,8.16
2022-10-06T23:31:54.776Z,8.15
2022-10-06T23:34:26.192Z,8.17
2022-10-06T23:36:57.646Z,8.13
2022-10-06T23:39:29.037Z,8.17
2022-10-06T23:42:00.744Z,8.14
2022-10-06T23:44:32.105Z,8.04
2022-10-06T23:47:04.222Z,7.94
2022-10-06T23:49:35.578Z,8.06
2022-10-06T23:52:06.949Z,8.08
2022-10-06T23:54:38.318Z,8.06
2022-10-06T23:57:09.724Z,7.99
2022-10-06T23:59:41.124Z,8.01
